sensor_id;sensor_type;location;lat;lon;timestamp;temperature;humidity
39751;DHT22;37579;51.074;17.004;2023-06-05T00:01:28;26.30;34.80
39751;DHT22;37579;51.074;17.004;2023-06-05T00:03:53;26.40;35.00
39751;DHT22;37579;51.074;17.004;2023-06-05T00:06:19;26.30;34.90
39751;DHT22;37579;51.074;17.004;2023-06-05T00:08:45;26.30;34.90
39751;DHT22;37579;51.074;17.004;2023-06-05T00:11:10;26.20;34.80
39751;DHT22;37579;51.074;17.004;2023-06-05T00:13:36;26.20;34.90
39751;DHT22;37579;51.074;17.004;2023-06-05T00:16:02;26.30;34.70
39751;DHT22;37579;51.074;17.004;2023-06-05T00:18:29;26.30;34.80
39751;DHT22;37579;51.074;17.004;2023-06-05T00:20:55;26.30;34.70
39751;DHT22;37579;51.074;17.004;2023-06-05T00:23:20;26.30;34.70
39751;DHT22;37579;51.074;17.004;2023-06-05T00:25:46;26.20;34.90
39751;DHT22;37579;51.074;17.004;2023-06-05T00:28:12;26.20;34.60
39751;DHT22;37579;51.074;17.004;2023-06-05T00:30:39;26.20;34.70
39751;DHT22;37579;51.074;17.004;2023-06-05T00:33:04;26.30;34.80
39751;DHT22;37579;51.074;17.004;2023-06-05T00:35:30;26.20;34.60
39751;DHT22;37579;51.074;17.004;2023-06-05T00:37:56;26.20;34.70
39751;DHT22;37579;51.074;17.004;2023-06-05T00:40:22;26.20;34.60
39751;DHT22;37579;51.074;17.004;2023-06-05T00:42:47;26.20;34.80
39751;DHT22;37579;51.074;17.004;2023-06-05T00:45:13;26.20;34.70
39751;DHT22;37579;51.074;17.004;2023-06-05T00:47:39;26.20;34.60
39751;DHT22;37579;51.074;17.004;2023-06-05T00:50:06;26.20;35.40
39751;DHT22;37579;51.074;17.004;2023-06-05T00:52:32;26.20;34.80
39751;DHT22;37579;51.074;17.004;2023-06-05T00:54:58;26.10;34.80
39751;DHT22;37579;51.074;17.004;2023-06-05T00:57:26;26.20;35.00
39751;DHT22;37579;51.074;17.004;2023-06-05T00:59:52;26.20;34.90
39751;DHT22;37579;51.074;17.004;2023-06-05T01:02:18;26.20;35.10
39751;DHT22;37579;51.074;17.004;2023-06-05T01:04:46;26.20;35.10
39751;DHT22;37579;51.074;17.004;2023-06-05T01:07:12;26.20;35.20
39751;DHT22;37579;51.074;17.004;2023-06-05T01:09:40;26.20;35.20
39751;DHT22;37579;51.074;17.004;2023-06-05T01:14:37;26.20;35.40
39751;DHT22;37579;51.074;17.004;2023-06-05T01:17:07;26.10;35.30
39751;DHT22;37579;51.074;17.004;2023-06-05T01:19:34;26.10;35.30
39751;DHT22;37579;51.074;17.004;2023-06-05T01:22:00;26.20;35.40
39751;DHT22;37579;51.074;17.004;2023-06-05T01:24:26;26.20;35.40
39751;DHT22;37579;51.074;17.004;2023-06-05T01:29:21;26.20;35.40
39751;DHT22;37579;51.074;17.004;2023-06-05T01:31:49;26.20;35.40
39751;DHT22;37579;51.074;17.004;2023-06-05T01:34:16;26.20;35.40
39751;DHT22;37579;51.074;17.004;2023-06-05T01:36:45;26.20;35.50
39751;DHT22;37579;51.074;17.004;2023-06-05T01:39:12;26.20;35.50
39751;DHT22;37579;51.074;17.004;2023-06-05T01:41:38;26.20;35.40
39751;DHT22;37579;51.074;17.004;2023-06-05T01:44:04;26.20;35.60
39751;DHT22;37579;51.074;17.004;2023-06-05T01:46:33;26.10;35.50
39751;DHT22;37579;51.074;17.004;2023-06-05T01:48:59;26.20;35.50
39751;DHT22;37579;51.074;17.004;2023-06-05T01:51:26;26.20;35.50
39751;DHT22;37579;51.074;17.004;2023-06-05T01:53:52;26.20;35.60
39751;DHT22;37579;51.074;17.004;2023-06-05T01:56:18;26.20;35.50
39751;DHT22;37579;51.074;17.004;2023-06-05T01:58:49;26.20;35.50
39751;DHT22;37579;51.074;17.004;2023-06-05T02:01:15;26.10;35.60
39751;DHT22;37579;51.074;17.004;2023-06-05T02:03:42;26.10;35.60
39751;DHT22;37579;51.074;17.004;2023-06-05T02:06:13;26.10;35.60
39751;DHT22;37579;51.074;17.004;2023-06-05T02:08:40;26.20;35.80
39751;DHT22;37579;51.074;17.004;2023-06-05T02:11:06;26.20;35.50
39751;DHT22;37579;51.074;17.004;2023-06-05T02:13:39;26.20;35.50
39751;DHT22;37579;51.074;17.004;2023-06-05T02:16:06;26.20;35.50
39751;DHT22;37579;51.074;17.004;2023-06-05T02:18:32;26.20;35.60
39751;DHT22;37579;51.074;17.004;2023-06-05T02:21:02;26.10;35.70
39751;DHT22;37579;51.074;17.004;2023-06-05T02:23:28;26.20;35.60
39751;DHT22;37579;51.074;17.004;2023-06-05T02:25:54;26.20;35.70
39751;DHT22;37579;51.074;17.004;2023-06-05T02:28:20;26.10;35.60
39751;DHT22;37579;51.074;17.004;2023-06-05T02:30:46;26.10;35.60
39751;DHT22;37579;51.074;17.004;2023-06-05T02:33:13;26.10;35.60
39751;DHT22;37579;51.074;17.004;2023-06-05T02:35:40;26.20;35.60
39751;DHT22;37579;51.074;17.004;2023-06-05T02:38:07;26.20;35.60
39751;DHT22;37579;51.074;17.004;2023-06-05T02:40:33;26.10;35.70
39751;DHT22;37579;51.074;17.004;2023-06-05T02:42:59;26.10;35.70
39751;DHT22;37579;51.074;17.004;2023-06-05T02:45:25;26.10;35.80
39751;DHT22;37579;51.074;17.004;2023-06-05T02:47:52;26.20;35.70
39751;DHT22;37579;51.074;17.004;2023-06-05T02:50:18;26.20;35.80
39751;DHT22;37579;51.074;17.004;2023-06-05T02:52:48;26.20;35.70
39751;DHT22;37579;51.074;17.004;2023-06-05T02:55:35;26.20;35.70
39751;DHT22;37579;51.074;17.004;2023-06-05T02:58:07;26.10;35.70
39751;DHT22;37579;51.074;17.004;2023-06-05T03:00:46;26.10;35.70
39751;DHT22;37579;51.074;17.004;2023-06-05T03:03:13;26.10;35.70
39751;DHT22;37579;51.074;17.004;2023-06-05T03:05:43;26.10;35.80
39751;DHT22;37579;51.074;17.004;2023-06-05T03:08:13;26.10;35.80
39751;DHT22;37579;51.074;17.004;2023-06-05T03:10:39;26.10;35.80
39751;DHT22;37579;51.074;17.004;2023-06-05T03:13:05;26.10;35.80
39751;DHT22;37579;51.074;17.004;2023-06-05T03:15:34;26.10;35.80
39751;DHT22;37579;51.074;17.004;2023-06-05T03:18:00;26.10;35.80
39751;DHT22;37579;51.074;17.004;2023-06-05T03:20:27;26.20;35.80
39751;DHT22;37579;51.074;17.004;2023-06-05T12:22:02;27.10;29.10
39751;DHT22;37579;51.074;17.004;2023-06-05T12:34:42;27.10;29.50
39751;DHT22;37579;51.074;17.004;2023-06-05T12:37:08;27.30;29.50
39751;DHT22;37579;51.074;17.004;2023-06-05T12:39:34;27.40;29.40
39751;DHT22;37579;51.074;17.004;2023-06-05T12:42:00;27.50;29.40
39751;DHT22;37579;51.074;17.004;2023-06-05T12:44:26;27.40;29.20
39751;DHT22;37579;51.074;17.004;2023-06-05T12:46:52;27.60;29.20
39751;DHT22;37579;51.074;17.004;2023-06-05T12:49:17;27.70;29.40
39751;DHT22;37579;51.074;17.004;2023-06-05T12:51:43;27.70;29.90
39751;DHT22;37579;51.074;17.004;2023-06-05T12:54:09;27.80;30.00
39751;DHT22;37579;51.074;17.004;2023-06-05T12:56:36;27.70;29.50
39751;DHT22;37579;51.074;17.004;2023-06-05T12:59:02;27.70;29.30
39751;DHT22;37579;51.074;17.004;2023-06-05T13:01:27;27.70;29.40
39751;DHT22;37579;51.074;17.004;2023-06-05T13:03:56;27.60;29.50
39751;DHT22;37579;51.074;17.004;2023-06-05T13:06:22;27.60;29.70
39751;DHT22;37579;51.074;17.004;2023-06-05T13:08:47;27.60;29.30
39751;DHT22;37579;51.074;17.004;2023-06-05T13:11:14;27.60;29.50
39751;DHT22;37579;51.074;17.004;2023-06-05T13:13:40;27.70;29.80
39751;DHT22;37579;51.074;17.004;2023-06-05T13:16:06;27.70;29.70
39751;DHT22;37579;51.074;17.004;2023-06-05T13:18:33;27.70;29.90
39751;DHT22;37579;51.074;17.004;2023-06-05T13:20:59;27.70;30.00
39751;DHT22;37579;51.074;17.004;2023-06-05T13:23:25;27.70;30.20
39751;DHT22;37579;51.074;17.004;2023-06-05T13:25:50;27.70;30.20
39751;DHT22;37579;51.074;17.004;2023-06-05T13:28:16;27.80;30.00
39751;DHT22;37579;51.074;17.004;2023-06-05T13:30:42;27.80;29.70
39751;DHT22;37579;51.074;17.004;2023-06-05T13:33:08;27.80;29.60
39751;DHT22;37579;51.074;17.004;2023-06-05T13:35:33;27.70;29.50
39751;DHT22;37579;51.074;17.004;2023-06-05T13:37:59;27.80;30.10
39751;DHT22;37579;51.074;17.004;2023-06-05T13:40:25;27.70;28.90
39751;DHT22;37579;51.074;17.004;2023-06-05T13:42:53;27.80;29.70
39751;DHT22;37579;51.074;17.004;2023-06-05T13:45:18;27.90;30.00
39751;DHT22;37579;51.074;17.004;2023-06-05T13:47:44;27.90;30.00
39751;DHT22;37579;51.074;17.004;2023-06-05T13:50:10;27.90;30.30
39751;DHT22;37579;51.074;17.004;2023-06-05T13:52:36;28.00;30.30
39751;DHT22;37579;51.074;17.004;2023-06-05T13:55:02;28.00;30.30
39751;DHT22;37579;51.074;17.004;2023-06-05T13:57:28;27.90;29.90
39751;DHT22;37579;51.074;17.004;2023-06-05T13:59:54;27.80;30.30
39751;DHT22;37579;51.074;17.004;2023-06-05T14:02:21;27.80;29.60
39751;DHT22;37579;51.074;17.004;2023-06-05T14:04:46;27.90;29.90
39751;DHT22;37579;51.074;17.004;2023-06-05T14:07:12;27.80;29.90
39751;DHT22;37579;51.074;17.004;2023-06-05T14:09:38;27.80;29.40
39751;DHT22;37579;51.074;17.004;2023-06-05T14:12:04;27.90;29.70
39751;DHT22;37579;51.074;17.004;2023-06-05T14:14:33;27.90;29.80
39751;DHT22;37579;51.074;17.004;2023-06-05T14:16:58;27.90;29.80
39751;DHT22;37579;51.074;17.004;2023-06-05T14:19:24;27.90;30.00
39751;DHT22;37579;51.074;17.004;2023-06-05T14:21:50;27.90;30.30
39751;DHT22;37579;51.074;17.004;2023-06-05T14:24:15;28.00;30.50
39751;DHT22;37579;51.074;17.004;2023-06-05T14:26:41;28.20;30.40
39751;DHT22;37579;51.074;17.004;2023-06-05T14:29:07;28.30;30.40
39751;DHT22;37579;51.074;17.004;2023-06-05T14:31:32;28.30;30.40
39751;DHT22;37579;51.074;17.004;2023-06-05T14:33:58;28.10;30.30
39751;DHT22;37579;51.074;17.004;2023-06-05T14:36:24;28.00;30.40
39751;DHT22;37579;51.074;17.004;2023-06-05T14:38:51;27.90;30.40
39751;DHT22;37579;51.074;17.004;2023-06-05T14:41:16;27.90;30.00
39751;DHT22;37579;51.074;17.004;2023-06-05T14:43:42;27.90;30.60
39751;DHT22;37579;51.074;17.004;2023-06-05T14:46:08;27.90;30.40
39751;DHT22;37579;51.074;17.004;2023-06-05T14:48:33;27.90;30.50
39751;DHT22;37579;51.074;17.004;2023-06-05T14:50:59;28.00;30.60
39751;DHT22;37579;51.074;17.004;2023-06-05T14:53:25;27.90;30.70
39751;DHT22;37579;51.074;17.004;2023-06-05T14:55:52;27.90;30.30
39751;DHT22;37579;51.074;17.004;2023-06-05T14:58:18;27.80;30.20
39751;DHT22;37579;51.074;17.004;2023-06-05T15:00:45;27.80;30.50
39751;DHT22;37579;51.074;17.004;2023-06-05T15:03:10;27.90;30.60
39751;DHT22;37579;51.074;17.004;2023-06-05T15:05:36;27.90;30.60
39751;DHT22;37579;51.074;17.004;2023-06-05T15:08:02;27.80;30.70
39751;DHT22;37579;51.074;17.004;2023-06-05T15:10:27;27.80;30.70
39751;DHT22;37579;51.074;17.004;2023-06-05T15:12:53;27.90;30.90
39751;DHT22;37579;51.074;17.004;2023-06-05T15:15:25;27.90;31.20
39751;DHT22;37579;51.074;17.004;2023-06-05T15:17:51;27.90;31.00
39751;DHT22;37579;51.074;17.004;2023-06-05T15:20:20;27.90;30.70
39751;DHT22;37579;51.074;17.004;2023-06-05T15:22:46;27.90;31.00
39751;DHT22;37579;51.074;17.004;2023-06-05T15:25:12;27.90;30.90
39751;DHT22;37579;51.074;17.004;2023-06-05T15:27:38;27.80;30.70
39751;DHT22;37579;51.074;17.004;2023-06-05T15:30:04;27.90;30.90
39751;DHT22;37579;51.074;17.004;2023-06-05T15:32:30;27.90;30.50
39751;DHT22;37579;51.074;17.004;2023-06-05T15:34:56;27.80;30.00
39751;DHT22;37579;51.074;17.004;2023-06-05T15:37:22;27.90;30.20
39751;DHT22;37579;51.074;17.004;2023-06-05T15:39:48;27.90;30.70
39751;DHT22;37579;51.074;17.004;2023-06-05T15:42:17;28.00;30.80
39751;DHT22;37579;51.074;17.004;2023-06-05T15:44:43;27.90;30.90
39751;DHT22;37579;51.074;17.004;2023-06-05T15:47:08;27.90;30.90
39751;DHT22;37579;51.074;17.004;2023-06-05T15:49:34;27.80;31.00
39751;DHT22;37579;51.074;17.004;2023-06-05T15:52:00;27.80;31.00
39751;DHT22;37579;51.074;17.004;2023-06-05T15:54:25;27.80;31.10
39751;DHT22;37579;51.074;17.004;2023-06-05T15:57:01;27.80;31.10
39751;DHT22;37579;51.074;17.004;2023-06-05T15:59:27;27.90;30.90
39751;DHT22;37579;51.074;17.004;2023-06-05T16:01:52;27.80;31.00
39751;DHT22;37579;51.074;17.004;2023-06-05T16:04:18;27.80;31.00
39751;DHT22;37579;51.074;17.004;2023-06-05T16:06:44;27.80;30.80
39751;DHT22;37579;51.074;17.004;2023-06-05T16:09:09;27.80;30.90
39751;DHT22;37579;51.074;17.004;2023-06-05T16:11:36;27.80;30.80
39751;DHT22;37579;51.074;17.004;2023-06-05T16:14:01;27.80;30.80
39751;DHT22;37579;51.074;17.004;2023-06-05T16:16:28;27.80;31.00
39751;DHT22;37579;51.074;17.004;2023-06-05T16:18:53;27.90;30.50
39751;DHT22;37579;51.074;17.004;2023-06-05T16:21:19;27.80;30.70
39751;DHT22;37579;51.074;17.004;2023-06-05T16:23:45;27.80;31.00
39751;DHT22;37579;51.074;17.004;2023-06-05T16:26:10;27.80;31.00
39751;DHT22;37579;51.074;17.004;2023-06-05T16:28:38;27.70;30.50
39751;DHT22;37579;51.074;17.004;2023-06-05T16:31:04;27.70;30.30
39751;DHT22;37579;51.074;17.004;2023-06-05T16:33:32;27.70;30.40
39751;DHT22;37579;51.074;17.004;2023-06-05T16:35:57;27.70;31.30
39751;DHT22;37579;51.074;17.004;2023-06-05T16:38:23;27.70;30.70
39751;DHT22;37579;51.074;17.004;2023-06-05T16:40:49;27.70;30.40
39751;DHT22;37579;51.074;17.004;2023-06-05T16:43:14;27.70;30.20
39751;DHT22;37579;51.074;17.004;2023-06-05T16:45:41;27.70;30.70
39751;DHT22;37579;51.074;17.004;2023-06-05T16:48:07;27.80;30.70
39751;DHT22;37579;51.074;17.004;2023-06-05T16:50:35;27.80;30.40
39751;DHT22;37579;51.074;17.004;2023-06-05T16:53:00;27.80;30.70
39751;DHT22;37579;51.074;17.004;2023-06-05T16:55:26;27.80;30.40
39751;DHT22;37579;51.074;17.004;2023-06-05T16:57:52;27.80;30.90
39751;DHT22;37579;51.074;17.004;2023-06-05T17:00:18;27.90;30.70
39751;DHT22;37579;51.074;17.004;2023-06-05T17:02:44;28.00;31.10
39751;DHT22;37579;51.074;17.004;2023-06-05T17:05:10;28.00;31.20
39751;DHT22;37579;51.074;17.004;2023-06-05T17:07:35;28.10;31.60
39751;DHT22;37579;51.074;17.004;2023-06-05T17:10:02;28.10;30.70
39751;DHT22;37579;51.074;17.004;2023-06-05T17:12:28;28.10;30.90
39751;DHT22;37579;51.074;17.004;2023-06-05T17:14:54;28.10;30.70
39751;DHT22;37579;51.074;17.004;2023-06-05T17:17:19;28.10;31.00
39751;DHT22;37579;51.074;17.004;2023-06-05T17:19:45;28.10;30.60
39751;DHT22;37579;51.074;17.004;2023-06-05T17:22:11;28.00;30.60
39751;DHT22;37579;51.074;17.004;2023-06-05T17:24:37;28.10;31.00
39751;DHT22;37579;51.074;17.004;2023-06-05T17:27:02;28.20;31.00
39751;DHT22;37579;51.074;17.004;2023-06-05T17:29:28;28.20;31.00
39751;DHT22;37579;51.074;17.004;2023-06-05T17:31:54;28.20;30.80
39751;DHT22;37579;51.074;17.004;2023-06-05T17:34:20;28.20;30.50
39751;DHT22;37579;51.074;17.004;2023-06-05T17:36:46;28.00;30.30
39751;DHT22;37579;51.074;17.004;2023-06-05T17:39:12;28.00;30.40
39751;DHT22;37579;51.074;17.004;2023-06-05T17:41:37;28.00;30.60
39751;DHT22;37579;51.074;17.004;2023-06-05T17:44:03;27.90;30.20
39751;DHT22;37579;51.074;17.004;2023-06-05T17:46:29;27.90;30.40
39751;DHT22;37579;51.074;17.004;2023-06-05T17:48:54;27.90;30.40
39751;DHT22;37579;51.074;17.004;2023-06-05T17:51:20;27.90;30.50
39751;DHT22;37579;51.074;17.004;2023-06-05T17:53:46;27.90;30.50
39751;DHT22;37579;51.074;17.004;2023-06-05T17:56:12;27.90;30.90
39751;DHT22;37579;51.074;17.004;2023-06-05T17:58:37;27.90;30.40
39751;DHT22;37579;51.074;17.004;2023-06-05T18:01:04;27.80;30.30
39751;DHT22;37579;51.074;17.004;2023-06-05T18:03:29;27.90;30.90
39751;DHT22;37579;51.074;17.004;2023-06-05T18:05:55;27.90;30.40
39751;DHT22;37579;51.074;17.004;2023-06-05T18:08:21;27.90;31.00
39751;DHT22;37579;51.074;17.004;2023-06-05T18:10:46;27.80;30.00
39751;DHT22;37579;51.074;17.004;2023-06-05T18:13:12;27.60;29.10
39751;DHT22;37579;51.074;17.004;2023-06-05T18:15:38;27.60;29.30
39751;DHT22;37579;51.074;17.004;2023-06-05T18:18:03;27.50;29.20
39751;DHT22;37579;51.074;17.004;2023-06-05T18:20:29;27.60;29.40
39751;DHT22;37579;51.074;17.004;2023-06-05T18:22:55;27.60;29.70
39751;DHT22;37579;51.074;17.004;2023-06-05T18:25:21;27.60;29.70
39751;DHT22;37579;51.074;17.004;2023-06-05T18:27:47;27.60;29.60
39751;DHT22;37579;51.074;17.004;2023-06-05T18:30:12;27.60;29.70
39751;DHT22;37579;51.074;17.004;2023-06-05T18:32:38;27.50;29.70
39751;DHT22;37579;51.074;17.004;2023-06-05T18:35:04;27.50;29.60
39751;DHT22;37579;51.074;17.004;2023-06-05T18:37:31;27.50;29.90
39751;DHT22;37579;51.074;17.004;2023-06-05T18:39:57;27.50;30.30
39751;DHT22;37579;51.074;17.004;2023-06-05T18:42:23;27.60;30.60
39751;DHT22;37579;51.074;17.004;2023-06-05T18:44:48;27.60;30.80
39751;DHT22;37579;51.074;17.004;2023-06-05T18:47:14;27.60;30.70
39751;DHT22;37579;51.074;17.004;2023-06-05T18:49:40;27.60;30.80
39751;DHT22;37579;51.074;17.004;2023-06-05T18:52:05;27.60;30.70
39751;DHT22;37579;51.074;17.004;2023-06-05T18:54:32;27.60;30.70
39751;DHT22;37579;51.074;17.004;2023-06-05T18:56:57;27.60;30.80
39751;DHT22;37579;51.074;17.004;2023-06-05T18:59:23;27.60;30.60
39751;DHT22;37579;51.074;17.004;2023-06-05T19:01:49;27.60;30.60
39751;DHT22;37579;51.074;17.004;2023-06-05T19:04:14;27.60;30.60
39751;DHT22;37579;51.074;17.004;2023-06-05T19:06:40;27.60;30.40
39751;DHT22;37579;51.074;17.004;2023-06-05T19:09:06;27.60;30.90
39751;DHT22;37579;51.074;17.004;2023-06-05T19:11:31;27.60;31.10
39751;DHT22;37579;51.074;17.004;2023-06-05T19:13:59;27.60;31.60
39751;DHT22;37579;51.074;17.004;2023-06-05T19:16:24;27.60;32.00
39751;DHT22;37579;51.074;17.004;2023-06-05T19:18:50;27.60;32.40
39751;DHT22;37579;51.074;17.004;2023-06-05T19:21:16;27.60;32.60
39751;DHT22;37579;51.074;17.004;2023-06-05T19:23:42;27.60;32.80
39751;DHT22;37579;51.074;17.004;2023-06-05T19:26:08;27.60;32.80
39751;DHT22;37579;51.074;17.004;2023-06-05T19:28:33;27.70;33.00
39751;DHT22;37579;51.074;17.004;2023-06-05T19:30:59;27.70;33.40
39751;DHT22;37579;51.074;17.004;2023-06-05T19:33:25;27.70;33.50
39751;DHT22;37579;51.074;17.004;2023-06-05T19:35:50;27.70;33.70
39751;DHT22;37579;51.074;17.004;2023-06-05T19:38:16;27.60;33.60
39751;DHT22;37579;51.074;17.004;2023-06-05T19:40:42;27.70;33.50
39751;DHT22;37579;51.074;17.004;2023-06-05T19:43:08;27.70;33.70
39751;DHT22;37579;51.074;17.004;2023-06-05T19:45:33;27.70;34.70
39751;DHT22;37579;51.074;17.004;2023-06-05T19:47:59;27.70;35.00
39751;DHT22;37579;51.074;17.004;2023-06-05T19:50:25;27.70;35.20
39751;DHT22;37579;51.074;17.004;2023-06-05T19:52:51;27.70;35.30
39751;DHT22;37579;51.074;17.004;2023-06-05T19:55:16;27.70;35.00
39751;DHT22;37579;51.074;17.004;2023-06-05T19:57:43;27.70;34.50
39751;DHT22;37579;51.074;17.004;2023-06-05T20:00:09;27.80;34.40
39751;DHT22;37579;51.074;17.004;2023-06-05T20:02:38;27.80;34.40
39751;DHT22;37579;51.074;17.004;2023-06-05T20:05:04;27.90;34.40
39751;DHT22;37579;51.074;17.004;2023-06-05T20:07:30;27.90;34.30
39751;DHT22;37579;51.074;17.004;2023-06-05T20:09:55;27.90;34.40
39751;DHT22;37579;51.074;17.004;2023-06-05T20:12:21;28.00;34.70
39751;DHT22;37579;51.074;17.004;2023-06-05T20:14:47;28.00;34.70
39751;DHT22;37579;51.074;17.004;2023-06-05T20:17:13;28.00;35.00
39751;DHT22;37579;51.074;17.004;2023-06-05T20:19:38;28.00;35.50
39751;DHT22;37579;51.074;17.004;2023-06-05T20:22:04;28.00;36.90
39751;DHT22;37579;51.074;17.004;2023-06-05T20:24:31;28.00;36.00
39751;DHT22;37579;51.074;17.004;2023-06-05T20:26:57;28.00;35.60
39751;DHT22;37579;51.074;17.004;2023-06-05T20:29:23;28.00;36.30
39751;DHT22;37579;51.074;17.004;2023-06-05T20:31:49;28.00;36.70
39751;DHT22;37579;51.074;17.004;2023-06-05T20:34:14;28.00;36.90
39751;DHT22;37579;51.074;17.004;2023-06-05T20:36:41;28.00;37.30
39751;DHT22;37579;51.074;17.004;2023-06-05T20:39:07;28.00;37.30
39751;DHT22;37579;51.074;17.004;2023-06-05T20:41:34;28.00;37.70
39751;DHT22;37579;51.074;17.004;2023-06-05T20:44:02;28.10;38.50
39751;DHT22;37579;51.074;17.004;2023-06-05T20:46:28;28.00;38.40
39751;DHT22;37579;51.074;17.004;2023-06-05T20:48:54;28.10;38.80
39751;DHT22;37579;51.074;17.004;2023-06-05T20:51:26;28.10;39.30
39751;DHT22;37579;51.074;17.004;2023-06-05T20:53:52;28.10;39.10
39751;DHT22;37579;51.074;17.004;2023-06-05T20:56:24;28.00;39.00
39751;DHT22;37579;51.074;17.004;2023-06-05T20:58:51;28.10;39.00
39751;DHT22;37579;51.074;17.004;2023-06-05T21:01:17;28.00;38.90
39751;DHT22;37579;51.074;17.004;2023-06-05T21:03:44;28.00;38.90
39751;DHT22;37579;51.074;17.004;2023-06-05T21:06:10;28.10;38.90
39751;DHT22;37579;51.074;17.004;2023-06-05T21:08:35;28.00;38.90
39751;DHT22;37579;51.074;17.004;2023-06-05T21:11:01;28.00;38.90
39751;DHT22;37579;51.074;17.004;2023-06-05T21:13:27;28.00;38.90
39751;DHT22;37579;51.074;17.004;2023-06-05T21:15:53;28.10;39.00
39751;DHT22;37579;51.074;17.004;2023-06-05T21:18:18;28.10;38.80
39751;DHT22;37579;51.074;17.004;2023-06-05T21:20:44;28.00;39.00
39751;DHT22;37579;51.074;17.004;2023-06-05T21:23:10;28.00;38.80
39751;DHT22;37579;51.074;17.004;2023-06-05T21:25:35;28.00;38.80
39751;DHT22;37579;51.074;17.004;2023-06-05T21:28:01;28.00;38.90
39751;DHT22;37579;51.074;17.004;2023-06-05T21:30:27;28.00;38.90
39751;DHT22;37579;51.074;17.004;2023-06-05T21:32:53;28.00;38.90
39751;DHT22;37579;51.074;17.004;2023-06-05T21:35:19;28.00;38.90
39751;DHT22;37579;51.074;17.004;2023-06-05T21:37:44;28.00;38.90
39751;DHT22;37579;51.074;17.004;2023-06-05T21:40:10;28.00;38.80
39751;DHT22;37579;51.074;17.004;2023-06-05T21:42:38;28.00;38.90
39751;DHT22;37579;51.074;17.004;2023-06-05T21:45:04;28.00;38.90
39751;DHT22;37579;51.074;17.004;2023-06-05T21:47:30;28.10;38.80
39751;DHT22;37579;51.074;17.004;2023-06-05T21:49:55;28.00;38.90
39751;DHT22;37579;51.074;17.004;2023-06-05T21:52:21;28.00;38.80
39751;DHT22;37579;51.074;17.004;2023-06-05T21:54:47;28.00;38.90
39751;DHT22;37579;51.074;17.004;2023-06-05T21:57:12;28.10;38.80
39751;DHT22;37579;51.074;17.004;2023-06-05T21:59:38;28.00;38.80
39751;DHT22;37579;51.074;17.004;2023-06-05T22:02:06;28.00;38.80
39751;DHT22;37579;51.074;17.004;2023-06-05T22:04:31;28.00;38.90
39751;DHT22;37579;51.074;17.004;2023-06-05T22:06:58;28.00;38.90
39751;DHT22;37579;51.074;17.004;2023-06-05T22:09:24;28.00;39.00
39751;DHT22;37579;51.074;17.004;2023-06-05T22:11:50;28.00;38.90
39751;DHT22;37579;51.074;17.004;2023-06-05T22:14:16;28.00;38.90
39751;DHT22;37579;51.074;17.004;2023-06-05T22:16:43;28.10;38.90
39751;DHT22;37579;51.074;17.004;2023-06-05T22:19:09;28.00;38.90
39751;DHT22;37579;51.074;17.004;2023-06-05T22:21:35;28.00;38.90
39751;DHT22;37579;51.074;17.004;2023-06-05T22:24:01;28.00;38.80
39751;DHT22;37579;51.074;17.004;2023-06-05T22:26:27;28.00;39.00
39751;DHT22;37579;51.074;17.004;2023-06-05T22:28:53;28.00;38.90
39751;DHT22;37579;51.074;17.004;2023-06-05T22:31:19;28.00;38.90
39751;DHT22;37579;51.074;17.004;2023-06-05T22:33:47;28.00;38.80
39751;DHT22;37579;51.074;17.004;2023-06-05T22:36:14;28.10;38.90
39751;DHT22;37579;51.074;17.004;2023-06-05T22:38:39;28.10;38.80
39751;DHT22;37579;51.074;17.004;2023-06-05T22:41:06;28.00;38.90
39751;DHT22;37579;51.074;17.004;2023-06-05T22:43:34;28.00;38.90
39751;DHT22;37579;51.074;17.004;2023-06-05T22:46:00;28.00;38.90
39751;DHT22;37579;51.074;17.004;2023-06-05T22:48:26;28.00;38.90
39751;DHT22;37579;51.074;17.004;2023-06-05T22:50:52;28.00;38.90
39751;DHT22;37579;51.074;17.004;2023-06-05T22:53:18;28.00;38.90
39751;DHT22;37579;51.074;17.004;2023-06-05T22:55:46;28.00;38.90
39751;DHT22;37579;51.074;17.004;2023-06-05T22:58:12;28.00;39.10
39751;DHT22;37579;51.074;17.004;2023-06-05T23:00:38;28.00;38.90
39751;DHT22;37579;51.074;17.004;2023-06-05T23:03:03;27.90;38.90
39751;DHT22;37579;51.074;17.004;2023-06-05T23:05:30;27.90;39.00
39751;DHT22;37579;51.074;17.004;2023-06-05T23:07:56;28.00;39.00
39751;DHT22;37579;51.074;17.004;2023-06-05T23:10:22;28.00;38.90
39751;DHT22;37579;51.074;17.004;2023-06-05T23:12:47;27.90;38.90
39751;DHT22;37579;51.074;17.004;2023-06-05T23:15:13;27.90;38.90
39751;DHT22;37579;51.074;17.004;2023-06-05T23:17:39;27.90;38.90
39751;DHT22;37579;51.074;17.004;2023-06-05T23:20:05;27.90;39.00
39751;DHT22;37579;51.074;17.004;2023-06-05T23:22:32;27.90;39.00
39751;DHT22;37579;51.074;17.004;2023-06-05T23:24:58;27.90;39.00
39751;DHT22;37579;51.074;17.004;2023-06-05T23:27:24;27.90;38.90
39751;DHT22;37579;51.074;17.004;2023-06-05T23:29:50;27.90;38.90
39751;DHT22;37579;51.074;17.004;2023-06-05T23:32:15;27.90;38.90
39751;DHT22;37579;51.074;17.004;2023-06-05T23:34:41;27.90;38.90
39751;DHT22;37579;51.074;17.004;2023-06-05T23:37:06;27.90;38.90
39751;DHT22;37579;51.074;17.004;2023-06-05T23:39:35;28.00;38.80
39751;DHT22;37579;51.074;17.004;2023-06-05T23:42:01;27.90;38.80
39751;DHT22;37579;51.074;17.004;2023-06-05T23:44:27;27.90;38.80
39751;DHT22;37579;51.074;17.004;2023-06-05T23:46:53;28.00;38.90
39751;DHT22;37579;51.074;17.004;2023-06-05T23:49:18;28.00;38.90
39751;DHT22;37579;51.074;17.004;2023-06-05T23:51:44;27.90;38.80
39751;DHT22;37579;51.074;17.004;2023-06-05T23:54:10;27.90;38.80
39751;DHT22;37579;51.074;17.004;2023-06-05T23:56:36;27.90;38.80
39751;DHT22;37579;51.074;17.004;2023-06-05T23:59:03;27.90;38.90
